sensor_id;sensor_type;location;lat;lon;timestamp;pressure;altitude;pressure_sealevel;temperature;humidity
28456;BME280;15682;56.742;38.866;2023-01-04T00:00:25;98230.0;;;-3.4;94.1
28456;BME280;15682;56.742;38.866;2023-01-04T00:02:25;98240.0;;;-3.4;93.9
28456;BME280;15682;56.742;38.866;2023-01-04T00:04:25;98240.0;;;-3.4;93.9
28456;BME280;15682;56.742;38.866;2023-01-04T00:06:25;98240.0;;;-3.4;93.9
28456;BME280;15682;56.742;38.866;2023-01-04T00:08:25;98260.0;;;-3.4;93.2
28456;BME280;15682;56.742;38.866;2023-01-04T00:10:24;98260.0;;;-3.4;93.2
28456;BME280;15682;56.742;38.866;2023-01-04T00:12:24;98260.0;;;-3.4;93.2
28456;BME280;15682;56.742;38.866;2023-01-04T00:14:24;98260.0;;;-3.4;93.2
28456;BME280;15682;56.742;38.866;2023-01-04T00:16:25;98260.0;;;-3.4;93.2
28456;BME280;15682;56.742;38.866;2023-01-04T00:18:23;98270.0;;;-3.4;93.2
28456;BME280;15682;56.742;38.866;2023-01-04T00:20:23;98270.0;;;-3.4;93.2
28456;BME280;15682;56.742;38.866;2023-01-04T00:22:23;98280.0;;;-3.4;93.4
28456;BME280;15682;56.742;38.866;2023-01-04T00:24:23;98280.0;;;-3.3;93.4
28456;BME280;15682;56.742;38.866;2023-01-04T00:26:24;98290.0;;;-3.3;93.4
28456;BME280;15682;56.742;38.866;2023-01-04T00:28:23;98290.0;;;-3.3;93.4
28456;BME280;15682;56.742;38.866;2023-01-04T00:30:23;98290.0;;;-3.4;93.4
28456;BME280;15682;56.742;38.866;2023-01-04T00:32:22;98300.0;;;-3.4;93.2
28456;BME280;15682;56.742;38.866;2023-01-04T00:34:22;98300.0;;;-3.4;93.2
28456;BME280;15682;56.742;38.866;2023-01-04T00:36:23;98310.0;;;-3.4;93.2
28456;BME280;15682;56.742;38.866;2023-01-04T00:38:22;98310.0;;;-3.4;93.2
28456;BME280;15682;56.742;38.866;2023-01-04T00:40:22;98320.0;;;-3.3;93.2
28456;BME280;15682;56.742;38.866;2023-01-04T00:42:22;98320.0;;;-3.2;92.9
28456;BME280;15682;56.742;38.866;2023-01-04T00:44:21;98330.0;;;-3.2;92.9
28456;BME280;15682;56.742;38.866;2023-01-04T00:46:21;98340.0;;;-3.2;92.9
28456;BME280;15682;56.742;38.866;2023-01-04T00:48:21;98340.0;;;-3.2;92.7
28456;BME280;15682;56.742;38.866;2023-01-04T00:50:21;98340.0;;;-3.2;92.7
28456;BME280;15682;56.742;38.866;2023-01-04T00:52:21;98340.0;;;-3.1;92.7
28456;BME280;15682;56.742;38.866;2023-01-04T00:54:21;98340.0;;;-3.1;92.7
28456;BME280;15682;56.742;38.866;2023-01-04T00:56:21;98340.0;;;-3.1;92.7
28456;BME280;15682;56.742;38.866;2023-01-04T00:58:20;98350.0;;;-3.1;92.7
28456;BME280;15682;56.742;38.866;2023-01-04T01:00:21;98360.0;;;-3.0;92.7
28456;BME280;15682;56.742;38.866;2023-01-04T01:02:20;98360.0;;;-3.0;92.5
28456;BME280;15682;56.742;38.866;2023-01-04T01:04:22;98370.0;;;-3.0;92.5
28456;BME280;15682;56.742;38.866;2023-01-04T01:06:20;98370.0;;;-3.0;92.1
28456;BME280;15682;56.742;38.866;2023-01-04T01:08:20;98380.0;;;-3.0;92.1
28456;BME280;15682;56.742;38.866;2023-01-04T01:10:20;98380.0;;;-3.1;92.1
28456;BME280;15682;56.742;38.866;2023-01-04T01:12:19;98380.0;;;-3.1;92.8
28456;BME280;15682;56.742;38.866;2023-01-04T01:14:22;98380.0;;;-3.1;92.8
28456;BME280;15682;56.742;38.866;2023-01-04T01:16:21;98390.0;;;-3.1;92.8
28456;BME280;15682;56.742;38.866;2023-01-04T01:18:19;98400.0;;;-3.0;92.3
28456;BME280;15682;56.742;38.866;2023-01-04T01:20:19;98400.0;;;-3.0;92.9
28456;BME280;15682;56.742;38.866;2023-01-04T01:22:19;98400.0;;;-3.0;92.4
28456;BME280;15682;56.742;38.866;2023-01-04T01:24:19;98400.0;;;-3.0;92.4
28456;BME280;15682;56.742;38.866;2023-01-04T01:26:21;98410.0;;;-3.0;92.4
28456;BME280;15682;56.742;38.866;2023-01-04T01:28:18;98420.0;;;-3.0;92.4
28456;BME280;15682;56.742;38.866;2023-01-04T01:30:18;98420.0;;;-3.0;92.4
28456;BME280;15682;56.742;38.866;2023-01-04T01:32:18;98420.0;;;-3.0;92.9
28456;BME280;15682;56.742;38.866;2023-01-04T01:34:18;98430.0;;;-3.0;92.9
28456;BME280;15682;56.742;38.866;2023-01-04T01:36:20;98430.0;;;-3.0;92.9
28456;BME280;15682;56.742;38.866;2023-01-04T01:38:18;98440.0;;;-3.0;92.9
28456;BME280;15682;56.742;38.866;2023-01-04T01:40:17;98460.0;;;-3.0;92.9
28456;BME280;15682;56.742;38.866;2023-01-04T01:42:19;98460.0;;;-3.0;93.0
28456;BME280;15682;56.742;38.866;2023-01-04T01:46:21;98470.0;;;-3.0;93.0
28456;BME280;15682;56.742;38.866;2023-01-04T01:48:22;98470.0;;;-3.0;93.0
28456;BME280;15682;56.742;38.866;2023-01-04T01:50:21;98490.0;;;-3.0;93.0
28456;BME280;15682;56.742;38.866;2023-01-04T01:52:20;98490.0;;;-3.0;92.6
28456;BME280;15682;56.742;38.866;2023-01-04T01:54:20;98490.0;;;-3.0;92.2
28456;BME280;15682;56.742;38.866;2023-01-04T01:56:17;98490.0;;;-3.0;92.2
28456;BME280;15682;56.742;38.866;2023-01-04T01:58:23;98500.0;;;-3.0;92.2
28456;BME280;15682;56.742;38.866;2023-01-04T02:00:18;98500.0;;;-3.0;92.2
28456;BME280;15682;56.742;38.866;2023-01-04T02:02:16;98500.0;;;-3.0;92.6
28456;BME280;15682;56.742;38.866;2023-01-04T02:04:16;98510.0;;;-3.0;92.6
28456;BME280;15682;56.742;38.866;2023-01-04T02:06:20;98520.0;;;-3.0;92.6
28456;BME280;15682;56.742;38.866;2023-01-04T02:08:16;98530.0;;;-3.0;92.6
28456;BME280;15682;56.742;38.866;2023-01-04T02:10:16;98530.0;;;-3.0;91.6
28456;BME280;15682;56.742;38.866;2023-01-04T02:12:15;98550.0;;;-3.0;91.6
28456;BME280;15682;56.742;38.866;2023-01-04T02:14:16;98550.0;;;-3.0;91.6
28456;BME280;15682;56.742;38.866;2023-01-04T02:16:20;98560.0;;;-3.0;91.6
28456;BME280;15682;56.742;38.866;2023-01-04T02:18:18;98560.0;;;-3.0;91.6
28456;BME280;15682;56.742;38.866;2023-01-04T02:20:30;98560.0;;;-3.0;91.6
28456;BME280;15682;56.742;38.866;2023-01-04T02:22:41;98580.0;;;-3.1;91.5
28456;BME280;15682;56.742;38.866;2023-01-04T02:24:32;98580.0;;;-3.1;91.5
28456;BME280;15682;56.742;38.866;2023-01-04T02:26:36;98580.0;;;-3.1;92.1
28456;BME280;15682;56.742;38.866;2023-01-04T02:28:23;98580.0;;;-3.1;92.1
28456;BME280;15682;56.742;38.866;2023-01-04T02:30:31;98580.0;;;-3.1;92.1
28456;BME280;15682;56.742;38.866;2023-01-04T02:32:20;98590.0;;;-3.1;92.0
28456;BME280;15682;56.742;38.866;2023-01-04T02:34:18;98600.0;;;-3.1;92.0
28456;BME280;15682;56.742;38.866;2023-01-04T02:36:22;98600.0;;;-3.1;92.0
28456;BME280;15682;56.742;38.866;2023-01-04T02:38:18;98610.0;;;-3.1;92.0
28456;BME280;15682;56.742;38.866;2023-01-04T02:40:20;98610.0;;;-3.1;92.0
28456;BME280;15682;56.742;38.866;2023-01-04T02:42:20;98610.0;;;-3.1;92.2
28456;BME280;15682;56.742;38.866;2023-01-04T02:44:15;98620.0;;;-3.1;92.2
28456;BME280;15682;56.742;38.866;2023-01-04T02:46:16;98630.0;;;-3.1;92.2
28456;BME280;15682;56.742;38.866;2023-01-04T02:48:12;98630.0;;;-3.1;92.2
28456;BME280;15682;56.742;38.866;2023-01-04T02:50:21;98630.0;;;-3.2;92.2
28456;BME280;15682;56.742;38.866;2023-01-04T02:52:12;98630.0;;;-3.2;92.4
28456;BME280;15682;56.742;38.866;2023-01-04T02:54:15;98630.0;;;-3.2;92.4
28456;BME280;15682;56.742;38.866;2023-01-04T02:56:16;98640.0;;;-3.2;92.4
28456;BME280;15682;56.742;38.866;2023-01-04T02:58:25;98640.0;;;-3.2;92.4
28456;BME280;15682;56.742;38.866;2023-01-04T03:00:21;98640.0;;;-3.2;92.4
28456;BME280;15682;56.742;38.866;2023-01-04T03:02:23;98640.0;;;-3.1;92.2
28456;BME280;15682;56.742;38.866;2023-01-04T03:04:22;98660.0;;;-3.1;92.2
28456;BME280;15682;56.742;38.866;2023-01-04T03:06:17;98660.0;;;-3.2;92.2
28456;BME280;15682;56.742;38.866;2023-01-04T03:08:16;98660.0;;;-3.2;92.2
28456;BME280;15682;56.742;38.866;2023-01-04T03:10:16;98660.0;;;-3.2;92.2
28456;BME280;15682;56.742;38.866;2023-01-04T03:12:14;98660.0;;;-3.2;92.2
28456;BME280;15682;56.742;38.866;2023-01-04T03:14:14;98670.0;;;-3.2;92.2
28456;BME280;15682;56.742;38.866;2023-01-04T03:16:17;98680.0;;;-3.2;92.7
28456;BME280;15682;56.742;38.866;2023-01-04T03:18:15;98690.0;;;-3.2;92.7
28456;BME280;15682;56.742;38.866;2023-01-04T03:20:12;98690.0;;;-3.3;92.7
28456;BME280;15682;56.742;38.866;2023-01-04T03:22:12;98690.0;;;-3.3;92.6
28456;BME280;15682;56.742;38.866;2023-01-04T03:24:11;98690.0;;;-3.3;92.6
28456;BME280;15682;56.742;38.866;2023-01-04T03:26:12;98690.0;;;-3.3;92.6
28456;BME280;15682;56.742;38.866;2023-01-04T03:28:13;98690.0;;;-3.3;92.6
28456;BME280;15682;56.742;38.866;2023-01-04T03:30:11;98710.0;;;-3.2;92.6
28456;BME280;15682;56.742;38.866;2023-01-04T03:32:11;98710.0;;;-3.2;92.6
28456;BME280;15682;56.742;38.866;2023-01-04T03:34:09;98710.0;;;-3.2;92.6
28456;BME280;15682;56.742;38.866;2023-01-04T03:36:17;98710.0;;;-3.4;92.6
28456;BME280;15682;56.742;38.866;2023-01-04T03:38:14;98710.0;;;-3.4;92.6
28456;BME280;15682;56.742;38.866;2023-01-04T03:40:19;98730.0;;;-3.4;92.6
28456;BME280;15682;56.742;38.866;2023-01-04T03:42:14;98730.0;;;-3.4;93.0
28456;BME280;15682;56.742;38.866;2023-01-04T03:44:12;98740.0;;;-3.4;93.3
28456;BME280;15682;56.742;38.866;2023-01-04T03:46:11;98740.0;;;-3.4;93.3
28456;BME280;15682;56.742;38.866;2023-01-04T03:48:12;98740.0;;;-3.4;93.3
28456;BME280;15682;56.742;38.866;2023-01-04T03:50:12;98740.0;;;-3.4;93.3
28456;BME280;15682;56.742;38.866;2023-01-04T03:52:08;98740.0;;;-3.4;93.2
28456;BME280;15682;56.742;38.866;2023-01-04T03:54:10;98740.0;;;-3.4;92.5
28456;BME280;15682;56.742;38.866;2023-01-04T03:56:09;98740.0;;;-3.4;92.5
28456;BME280;15682;56.742;38.866;2023-01-04T03:58:07;98740.0;;;-3.4;92.5
28456;BME280;15682;56.742;38.866;2023-01-04T04:00:10;98750.0;;;-3.4;92.5
28456;BME280;15682;56.742;38.866;2023-01-04T04:02:09;98770.0;;;-3.4;91.6
28456;BME280;15682;56.742;38.866;2023-01-04T04:04:07;98770.0;;;-3.4;90.7
28456;BME280;15682;56.742;38.866;2023-01-04T04:06:08;98770.0;;;-3.4;91.2
28456;BME280;15682;56.742;38.866;2023-01-04T04:08:06;98770.0;;;-3.4;91.2
28456;BME280;15682;56.742;38.866;2023-01-04T04:10:07;98780.0;;;-3.4;90.7
28456;BME280;15682;56.742;38.866;2023-01-04T04:12:06;98790.0;;;-3.4;90.1
28456;BME280;15682;56.742;38.866;2023-01-04T04:14:06;98790.0;;;-3.4;89.3
28456;BME280;15682;56.742;38.866;2023-01-04T04:16:06;98790.0;;;-3.3;89.3
28456;BME280;15682;56.742;38.866;2023-01-04T04:18:06;98790.0;;;-3.3;89.3
28456;BME280;15682;56.742;38.866;2023-01-04T04:20:06;98790.0;;;-3.3;89.3
28456;BME280;15682;56.742;38.866;2023-01-04T04:22:05;98790.0;;;-3.4;90.1
28456;BME280;15682;56.742;38.866;2023-01-04T04:24:06;98790.0;;;-3.4;90.1
28456;BME280;15682;56.742;38.866;2023-01-04T04:26:05;98790.0;;;-3.4;90.1
28456;BME280;15682;56.742;38.866;2023-01-04T04:28:05;98800.0;;;-3.4;90.1
28456;BME280;15682;56.742;38.866;2023-01-04T04:30:06;98800.0;;;-3.4;90.9
28456;BME280;15682;56.742;38.866;2023-01-04T04:32:05;98810.0;;;-3.5;90.8
28456;BME280;15682;56.742;38.866;2023-01-04T04:34:04;98810.0;;;-3.4;90.8
28456;BME280;15682;56.742;38.866;2023-01-04T04:36:05;98810.0;;;-3.4;90.8
28456;BME280;15682;56.742;38.866;2023-01-04T04:38:04;98810.0;;;-3.4;90.8
28456;BME280;15682;56.742;38.866;2023-01-04T04:40:05;98820.0;;;-3.4;90.8
28456;BME280;15682;56.742;38.866;2023-01-04T04:42:04;98830.0;;;-3.5;90.6
28456;BME280;15682;56.742;38.866;2023-01-04T04:44:04;98830.0;;;-3.5;90.2
28456;BME280;15682;56.742;38.866;2023-01-04T04:46:04;98840.0;;;-3.5;90.2
28456;BME280;15682;56.742;38.866;2023-01-04T04:48:04;98840.0;;;-3.5;89.5
28456;BME280;15682;56.742;38.866;2023-01-04T04:50:04;98850.0;;;-3.6;89.5
28456;BME280;15682;56.742;38.866;2023-01-04T04:52:03;98860.0;;;-3.6;89.8
28456;BME280;15682;56.742;38.866;2023-01-04T04:54:04;98860.0;;;-3.6;89.8
28456;BME280;15682;56.742;38.866;2023-01-04T04:56:03;98860.0;;;-3.6;89.8
28456;BME280;15682;56.742;38.866;2023-01-04T04:58:03;98860.0;;;-3.6;89.8
28456;BME280;15682;56.742;38.866;2023-01-04T05:00:03;98860.0;;;-3.5;90.0
28456;BME280;15682;56.742;38.866;2023-01-04T05:02:02;98860.0;;;-3.5;89.7
28456;BME280;15682;56.742;38.866;2023-01-04T05:04:03;98870.0;;;-3.5;89.7
28456;BME280;15682;56.742;38.866;2023-01-04T05:06:03;98870.0;;;-3.5;89.5
28456;BME280;15682;56.742;38.866;2023-01-04T05:08:02;98870.0;;;-3.5;90.1
28456;BME280;15682;56.742;38.866;2023-01-04T05:10:03;98880.0;;;-3.7;90.1
28456;BME280;15682;56.742;38.866;2023-01-04T05:12:02;98880.0;;;-3.7;89.8
28456;BME280;15682;56.742;38.866;2023-01-04T05:14:02;98880.0;;;-3.7;89.8
28456;BME280;15682;56.742;38.866;2023-01-04T05:16:03;98880.0;;;-3.7;89.8
28456;BME280;15682;56.742;38.866;2023-01-04T05:18:02;98890.0;;;-3.7;89.8
28456;BME280;15682;56.742;38.866;2023-01-04T05:20:02;98890.0;;;-3.8;89.8
28456;BME280;15682;56.742;38.866;2023-01-04T05:22:01;98890.0;;;-3.8;90.7
28456;BME280;15682;56.742;38.866;2023-01-04T05:24:01;98900.0;;;-3.8;90.7
28456;BME280;15682;56.742;38.866;2023-01-04T05:26:01;98900.0;;;-3.8;91.3
28456;BME280;15682;56.742;38.866;2023-01-04T05:28:01;98910.0;;;-3.8;91.3
28456;BME280;15682;56.742;38.866;2023-01-04T05:30:01;98910.0;;;-3.8;91.3
28456;BME280;15682;56.742;38.866;2023-01-04T05:32:00;98910.0;;;-3.8;91.3
28456;BME280;15682;56.742;38.866;2023-01-04T05:34:00;98910.0;;;-3.9;90.3
28456;BME280;15682;56.742;38.866;2023-01-04T05:36:02;98910.0;;;-3.9;90.3
28456;BME280;15682;56.742;38.866;2023-01-04T05:38:00;98920.0;;;-3.9;91.2
28456;BME280;15682;56.742;38.866;2023-01-04T05:39:59;98930.0;;;-4.1;90.3
28456;BME280;15682;56.742;38.866;2023-01-04T05:41:59;98940.0;;;-4.1;90.3
28456;BME280;15682;56.742;38.866;2023-01-04T05:43:59;98940.0;;;-4.1;90.3
28456;BME280;15682;56.742;38.866;2023-01-04T05:45:59;98950.0;;;-4.1;90.3
28456;BME280;15682;56.742;38.866;2023-01-04T05:47:59;98950.0;;;-4.1;90.3
28456;BME280;15682;56.742;38.866;2023-01-04T05:49:59;98950.0;;;-4.2;90.3
28456;BME280;15682;56.742;38.866;2023-01-04T05:51:59;98950.0;;;-4.2;91.0
28456;BME280;15682;56.742;38.866;2023-01-04T05:53:58;98950.0;;;-4.2;91.0
28456;BME280;15682;56.742;38.866;2023-01-04T05:55:58;98950.0;;;-4.2;91.0
28456;BME280;15682;56.742;38.866;2023-01-04T05:57:58;98950.0;;;-4.2;91.0
28456;BME280;15682;56.742;38.866;2023-01-04T05:59:58;98950.0;;;-4.2;91.0
28456;BME280;15682;56.742;38.866;2023-01-04T06:01:58;98950.0;;;-4.2;91.2
28456;BME280;15682;56.742;38.866;2023-01-04T06:03:58;98950.0;;;-4.2;91.2
28456;BME280;15682;56.742;38.866;2023-01-04T06:05:57;98960.0;;;-4.2;91.2
28456;BME280;15682;56.742;38.866;2023-01-04T06:07:57;98960.0;;;-4.2;91.2
28456;BME280;15682;56.742;38.866;2023-01-04T06:09:57;98970.0;;;-4.2;91.9
28456;BME280;15682;56.742;38.866;2023-01-04T06:11:57;98970.0;;;-4.2;91.6
28456;BME280;15682;56.742;38.866;2023-01-04T06:13:57;98970.0;;;-4.2;91.6
28456;BME280;15682;56.742;38.866;2023-01-04T06:15:57;98980.0;;;-4.2;91.0
28456;BME280;15682;56.742;38.866;2023-01-04T06:17:56;98980.0;;;-4.4;91.0
28456;BME280;15682;56.742;38.866;2023-01-04T06:19:56;98990.0;;;-4.4;91.0
28456;BME280;15682;56.742;38.866;2023-01-04T06:21:56;98990.0;;;-4.4;90.9
28456;BME280;15682;56.742;38.866;2023-01-04T06:23:56;98990.0;;;-4.4;90.9
28456;BME280;15682;56.742;38.866;2023-01-04T06:25:56;98990.0;;;-4.5;90.2
28456;BME280;15682;56.742;38.866;2023-01-04T06:27:56;99000.0;;;-4.5;90.2
28456;BME280;15682;56.742;38.866;2023-01-04T06:29:55;99020.0;;;-4.6;89.3
28456;BME280;15682;56.742;38.866;2023-01-04T06:31:55;99020.0;;;-4.7;89.4
28456;BME280;15682;56.742;38.866;2023-01-04T06:33:55;99020.0;;;-4.6;89.4
28456;BME280;15682;56.742;38.866;2023-01-04T06:35:55;99020.0;;;-4.6;88.2
28456;BME280;15682;56.742;38.866;2023-01-04T06:37:55;99030.0;;;-4.5;88.8
28456;BME280;15682;56.742;38.866;2023-01-04T06:39:55;99030.0;;;-4.6;88.3
28456;BME280;15682;56.742;38.866;2023-01-04T06:41:54;99040.0;;;-4.6;88.3
28456;BME280;15682;56.742;38.866;2023-01-04T06:43:54;99040.0;;;-4.6;88.3
28456;BME280;15682;56.742;38.866;2023-01-04T06:45:54;99050.0;;;-4.6;88.3
28456;BME280;15682;56.742;38.866;2023-01-04T06:47:54;99050.0;;;-4.6;88.2
28456;BME280;15682;56.742;38.866;2023-01-04T06:49:54;99050.0;;;-4.5;88.2
28456;BME280;15682;56.742;38.866;2023-01-04T06:51:54;99050.0;;;-4.5;88.0
28456;BME280;15682;56.742;38.866;2023-01-04T06:53:53;99060.0;;;-4.5;88.0
28456;BME280;15682;56.742;38.866;2023-01-04T06:55:53;99060.0;;;-4.5;88.5
28456;BME280;15682;56.742;38.866;2023-01-04T06:57:53;99060.0;;;-4.5;88.5
28456;BME280;15682;56.742;38.866;2023-01-04T06:59:53;99060.0;;;-4.5;88.5
28456;BME280;15682;56.742;38.866;2023-01-04T07:01:53;99060.0;;;-4.5;89.0
28456;BME280;15682;56.742;38.866;2023-01-04T07:03:53;99060.0;;;-4.3;89.0
28456;BME280;15682;56.742;38.866;2023-01-04T07:05:52;99060.0;;;-4.3;89.0
28456;BME280;15682;56.742;38.866;2023-01-04T07:07:52;99060.0;;;-4.5;89.4
28456;BME280;15682;56.742;38.866;2023-01-04T07:09:52;99070.0;;;-4.5;89.4
28456;BME280;15682;56.742;38.866;2023-01-04T07:11:52;99070.0;;;-4.3;89.5
28456;BME280;15682;56.742;38.866;2023-01-04T07:13:52;99070.0;;;-4.3;88.3
28456;BME280;15682;56.742;38.866;2023-01-04T07:15:51;99070.0;;;-4.3;89.1
28456;BME280;15682;56.742;38.866;2023-01-04T07:17:51;99070.0;;;-4.5;89.8
28456;BME280;15682;56.742;38.866;2023-01-04T07:19:51;99070.0;;;-4.5;89.8
28456;BME280;15682;56.742;38.866;2023-01-04T07:21:51;99070.0;;;-4.5;89.7
28456;BME280;15682;56.742;38.866;2023-01-04T07:23:51;99080.0;;;-4.5;89.7
28456;BME280;15682;56.742;38.866;2023-01-04T07:25:51;99090.0;;;-4.5;89.7
28456;BME280;15682;56.742;38.866;2023-01-04T07:27:51;99090.0;;;-4.6;88.7
28456;BME280;15682;56.742;38.866;2023-01-04T07:29:50;99090.0;;;-4.3;86.7
28456;BME280;15682;56.742;38.866;2023-01-04T07:31:51;99090.0;;;-4.3;86.7
28456;BME280;15682;56.742;38.866;2023-01-04T07:33:50;99100.0;;;-4.3;87.2
28456;BME280;15682;56.742;38.866;2023-01-04T07:35:50;99100.0;;;-4.3;85.8
28456;BME280;15682;56.742;38.866;2023-01-04T07:37:50;99110.0;;;-4.3;85.8
28456;BME280;15682;56.742;38.866;2023-01-04T07:39:49;99110.0;;;-4.5;85.1
28456;BME280;15682;56.742;38.866;2023-01-04T07:41:49;99110.0;;;-4.5;85.2
28456;BME280;15682;56.742;38.866;2023-01-04T07:43:49;99120.0;;;-4.3;85.2
28456;BME280;15682;56.742;38.866;2023-01-04T07:45:49;99120.0;;;-4.3;85.2
28456;BME280;15682;56.742;38.866;2023-01-04T07:47:49;99120.0;;;-4.3;85.8
28456;BME280;15682;56.742;38.866;2023-01-04T07:49:48;99120.0;;;-4.4;85.8
28456;BME280;15682;56.742;38.866;2023-01-04T07:51:49;99120.0;;;-4.4;86.1
28456;BME280;15682;56.742;38.866;2023-01-04T07:53:48;99120.0;;;-4.5;86.8
28456;BME280;15682;56.742;38.866;2023-01-04T07:55:54;99120.0;;;-4.5;86.8
28456;BME280;15682;56.742;38.866;2023-01-04T07:57:48;99120.0;;;-4.3;86.8
28456;BME280;15682;56.742;38.866;2023-01-04T07:59:48;99120.0;;;-4.3;86.0
28456;BME280;15682;56.742;38.866;2023-01-04T08:01:48;99120.0;;;-4.1;86.3
28456;BME280;15682;56.742;38.866;2023-01-04T08:03:47;99120.0;;;-4.1;86.8
28456;BME280;15682;56.742;38.866;2023-01-04T08:05:47;99120.0;;;-4.1;86.8
28456;BME280;15682;56.742;38.866;2023-01-04T08:07:47;99120.0;;;-4.1;86.8
28456;BME280;15682;56.742;38.866;2023-01-04T08:09:47;99120.0;;;-4.2;86.8
28456;BME280;15682;56.742;38.866;2023-01-04T08:11:47;99120.0;;;-4.2;87.5
28456;BME280;15682;56.742;38.866;2023-01-04T08:13:46;99120.0;;;-4.2;87.5
28456;BME280;15682;56.742;38.866;2023-01-04T08:15:51;99120.0;;;-4.2;87.5
28456;BME280;15682;56.742;38.866;2023-01-04T08:17:46;99130.0;;;-4.2;87.5
28456;BME280;15682;56.742;38.866;2023-01-04T08:19:46;99140.0;;;-4.2;87.7
28456;BME280;15682;56.742;38.866;2023-01-04T08:21:46;99140.0;;;-4.4;88.1
28456;BME280;15682;56.742;38.866;2023-01-04T08:23:46;99150.0;;;-4.4;88.1
28456;BME280;15682;56.742;38.866;2023-01-04T08:25:45;99150.0;;;-4.4;88.5
28456;BME280;15682;56.742;38.866;2023-01-04T08:27:45;99150.0;;;-4.4;87.7
28456;BME280;15682;56.742;38.866;2023-01-04T08:29:45;99150.0;;;-4.5;86.5
28456;BME280;15682;56.742;38.866;2023-01-04T08:31:45;99150.0;;;-4.5;85.8
28456;BME280;15682;56.742;38.866;2023-01-04T08:33:45;99150.0;;;-4.5;84.5
28456;BME280;15682;56.742;38.866;2023-01-04T08:35:44;99150.0;;;-4.2;83.3
28456;BME280;15682;56.742;38.866;2023-01-04T08:37:44;99150.0;;;-4.2;82.9
28456;BME280;15682;56.742;38.866;2023-01-04T08:39:44;99150.0;;;-4.2;82.9
28456;BME280;15682;56.742;38.866;2023-01-04T08:41:44;99150.0;;;-4.3;82.4
28456;BME280;15682;56.742;38.866;2023-01-04T08:43:44;99150.0;;;-4.3;82.2
28456;BME280;15682;56.742;38.866;2023-01-04T08:45:44;99150.0;;;-4.1;82.0
28456;BME280;15682;56.742;38.866;2023-01-04T08:47:43;99150.0;;;-4.1;82.0
28456;BME280;15682;56.742;38.866;2023-01-04T08:49:43;99150.0;;;-4.1;82.0
28456;BME280;15682;56.742;38.866;2023-01-04T08:51:44;99150.0;;;-4.4;82.2
28456;BME280;15682;56.742;38.866;2023-01-04T08:53:43;99150.0;;;-4.4;82.2
28456;BME280;15682;56.742;38.866;2023-01-04T08:55:48;99150.0;;;-4.4;81.1
28456;BME280;15682;56.742;38.866;2023-01-04T08:57:43;99160.0;;;-4.4;81.1
28456;BME280;15682;56.742;38.866;2023-01-04T08:59:42;99160.0;;;-4.4;81.1
28456;BME280;15682;56.742;38.866;2023-01-04T09:01:42;99160.0;;;-4.5;80.9
28456;BME280;15682;56.742;38.866;2023-01-04T09:03:42;99160.0;;;-4.5;79.9
28456;BME280;15682;56.742;38.866;2023-01-04T09:05:42;99160.0;;;-4.5;79.7
28456;BME280;15682;56.742;38.866;2023-01-04T09:07:42;99160.0;;;-4.6;81.7
28456;BME280;15682;56.742;38.866;2023-01-04T09:09:42;99160.0;;;-4.6;80.2
28456;BME280;15682;56.742;38.866;2023-01-04T09:11:41;99160.0;;;-4.6;81.1
28456;BME280;15682;56.742;38.866;2023-01-04T09:13:41;99160.0;;;-4.6;80.2
28456;BME280;15682;56.742;38.866;2023-01-04T09:15:41;99160.0;;;-4.6;80.2
28456;BME280;15682;56.742;38.866;2023-01-04T09:17:41;99160.0;;;-4.5;80.2
28456;BME280;15682;56.742;38.866;2023-01-04T09:19:41;99160.0;;;-4.5;81.0
28456;BME280;15682;56.742;38.866;2023-01-04T09:21:40;99160.0;;;-4.7;80.4
28456;BME280;15682;56.742;38.866;2023-01-04T09:23:42;99160.0;;;-4.4;81.4
28456;BME280;15682;56.742;38.866;2023-01-04T09:25:40;99160.0;;;-4.4;80.8
28456;BME280;15682;56.742;38.866;2023-01-04T09:27:40;99160.0;;;-4.4;81.4
28456;BME280;15682;56.742;38.866;2023-01-04T09:29:40;99160.0;;;-4.3;81.2
28456;BME280;15682;56.742;38.866;2023-01-04T09:31:40;99160.0;;;-4.3;81.9
28456;BME280;15682;56.742;38.866;2023-01-04T09:33:40;99160.0;;;-4.2;81.9
28456;BME280;15682;56.742;38.866;2023-01-04T09:35:39;99160.0;;;-4.2;81.4
28456;BME280;15682;56.742;38.866;2023-01-04T09:37:39;99160.0;;;-4.2;82.4
28456;BME280;15682;56.742;38.866;2023-01-04T09:39:39;99160.0;;;-4.2;81.8
28456;BME280;15682;56.742;38.866;2023-01-04T09:41:43;99160.0;;;-4.1;82.3
28456;BME280;15682;56.742;38.866;2023-01-04T09:43:44;99160.0;;;-4.0;82.3
28456;BME280;15682;56.742;38.866;2023-01-04T09:45:39;99160.0;;;-4.0;82.3
28456;BME280;15682;56.742;38.866;2023-01-04T09:47:42;99160.0;;;-4.0;82.3
28456;BME280;15682;56.742;38.866;2023-01-04T09:49:42;99160.0;;;-4.1;82.7
28456;BME280;15682;56.742;38.866;2023-01-04T09:51:41;99160.0;;;-4.1;83.6
28456;BME280;15682;56.742;38.866;2023-01-04T09:53:42;99160.0;;;-4.1;83.6
28456;BME280;15682;56.742;38.866;2023-01-04T09:55:39;99160.0;;;-4.1;85.2
28456;BME280;15682;56.742;38.866;2023-01-04T09:57:41;99160.0;;;-4.1;85.2
28456;BME280;15682;56.742;38.866;2023-01-04T09:59:38;99160.0;;;-4.1;85.7
28456;BME280;15682;56.742;38.866;2023-01-04T10:01:41;99160.0;;;-4.2;85.8
28456;BME280;15682;56.742;38.866;2023-01-04T10:03:38;99160.0;;;-4.2;86.3
28456;BME280;15682;56.742;38.866;2023-01-04T10:05:37;99160.0;;;-4.3;86.3
28456;BME280;15682;56.742;38.866;2023-01-04T10:07:37;99160.0;;;-4.3;86.3
28456;BME280;15682;56.742;38.866;2023-01-04T10:09:36;99160.0;;;-4.4;85.1
28456;BME280;15682;56.742;38.866;2023-01-04T10:11:45;99160.0;;;-4.4;84.1
28456;BME280;15682;56.742;38.866;2023-01-04T10:13:50;99160.0;;;-4.4;84.6
28456;BME280;15682;56.742;38.866;2023-01-04T10:15:39;99160.0;;;-4.4;83.6
28456;BME280;15682;56.742;38.866;2023-01-04T10:17:45;99160.0;;;-4.4;83.6
28456;BME280;15682;56.742;38.866;2023-01-04T10:19:46;99160.0;;;-4.4;82.9
28456;BME280;15682;56.742;38.866;2023-01-04T10:21:39;99160.0;;;-4.5;82.1
28456;BME280;15682;56.742;38.866;2023-01-04T10:23:46;99160.0;;;-4.5;81.3
28456;BME280;15682;56.742;38.866;2023-01-04T10:25:40;99160.0;;;-4.5;81.3
28456;BME280;15682;56.742;38.866;2023-01-04T10:27:40;99160.0;;;-4.6;81.3
28456;BME280;15682;56.742;38.866;2023-01-04T10:29:43;99160.0;;;-4.8;81.3
28456;BME280;15682;56.742;38.866;2023-01-04T10:31:39;99160.0;;;-4.8;81.8
28456;BME280;15682;56.742;38.866;2023-01-04T10:33:39;99160.0;;;-4.8;81.8
28456;BME280;15682;56.742;38.866;2023-01-04T10:35:35;99160.0;;;-4.8;81.8
28456;BME280;15682;56.742;38.866;2023-01-04T10:37:36;99160.0;;;-4.8;81.8
28456;BME280;15682;56.742;38.866;2023-01-04T10:39:34;99160.0;;;-4.8;81.8
28456;BME280;15682;56.742;38.866;2023-01-04T10:41:37;99160.0;;;-4.7;82.5
28456;BME280;15682;56.742;38.866;2023-01-04T10:43:38;99160.0;;;-4.7;83.2
28456;BME280;15682;56.742;38.866;2023-01-04T10:45:39;99160.0;;;-4.7;82.6
28456;BME280;15682;56.742;38.866;2023-01-04T10:47:38;99160.0;;;-4.8;83.5
28456;BME280;15682;56.742;38.866;2023-01-04T10:49:40;99160.0;;;-4.8;84.0
28456;BME280;15682;56.742;38.866;2023-01-04T10:51:36;99150.0;;;-4.7;83.8
28456;BME280;15682;56.742;38.866;2023-01-04T10:53:37;99150.0;;;-4.7;83.8